Time;durP1;ratioP1;P1;durP2;ratioP2;P2;SDS_P1;SDS_P2;PMS_P1;PMS_P2;Temp;Humidity;BMP_temperature;BMP_pressure;BME280_temperature;BME280_humidity;BME280_pressure;Samples;Min_cycle;Max_cycle;Signal;HPM_P1;HPM_P2
2021/01/05 00:01:59;;;;;;;2.90;2.10;;;4.40;1.00;;;;;;5097253;28;20176;-61
2021/01/05 00:04:33;;;;;;;4.47;2.87;;;4.40;1.00;;;;;;5097022;28;20429;-58
2021/01/05 00:07:04;;;;;;;4.72;2.92;;;4.20;1.00;;;;;;5096122;28;20434;-59
2021/01/05 00:09:30;;;;;;;5.85;2.78;;;4.30;1.00;;;;;;5097239;28;20641;-58
2021/01/05 00:11:57;;;;;;;3.50;2.30;;;4.30;1.00;;;;;;5097159;28;20280;-61
2021/01/05 00:14:22;;;;;;;3.38;3.08;;;4.40;1.00;;;;;;5096769;28;20882;-61
2021/01/05 00:16:48;;;;;;;4.13;2.80;;;4.20;1.00;;;;;;5097326;28;20208;-61
2021/01/05 00:19:13;;;;;;;4.57;2.83;;;4.20;1.00;;;;;;5097083;28;20186;-60
2021/01/05 00:21:39;;;;;;;7.20;2.83;;;4.20;1.00;;;;;;5093335;28;20194;-61
2021/01/05 00:24:06;;;;;;;4.70;2.90;;;4.30;1.00;;;;;;5096622;28;20180;-61
2021/01/05 00:26:35;;;;;;;4.90;2.70;;;4.30;1.00;;;;;;5096781;28;20184;-60
2021/01/05 00:29:01;;;;;;;5.28;2.50;;;4.20;1.00;;;;;;5096631;28;20490;-60
2021/01/05 00:31:26;;;;;;;5.73;3.00;;;4.10;1.00;;;;;;5096568;28;20187;-60
2021/01/05 00:33:52;;;;;;;5.80;3.20;;;4.10;1.00;;;;;;5095655;28;20436;-60
2021/01/05 00:36:17;;;;;;;3.83;2.80;;;3.90;1.00;;;;;;5096548;28;20213;-60
2021/01/05 00:38:43;;;;;;;4.47;2.90;;;4.10;1.00;;;;;;5096579;28;20175;-60
2021/01/05 00:41:08;;;;;;;3.63;2.30;;;3.90;1.00;;;;;;5095783;28;20233;-60
2021/01/05 00:43:34;;;;;;;4.27;2.83;;;3.80;1.00;;;;;;5096454;28;20199;-61
2021/01/05 00:45:59;;;;;;;2.73;2.50;;;4.00;15.30;;;;;;5096627;28;20190;-61
2021/01/05 00:48:25;;;;;;;2.77;2.10;;;4.10;24.60;;;;;;5096609;28;20219;-61
2021/01/05 00:50:50;;;;;;;3.70;2.03;;;4.00;18.40;;;;;;5096426;28;20198;-60
2021/01/05 00:53:16;;;;;;;6.83;2.60;;;4.10;19.90;;;;;;5096077;28;20184;-61
2021/01/05 00:55:41;;;;;;;4.20;2.70;;;3.90;6.40;;;;;;5096284;28;20251;-60
2021/01/05 00:58:07;;;;;;;3.90;2.30;;;4.00;16.80;;;;;;5095481;28;20507;-60
2021/01/05 01:00:33;;;;;;;2.83;2.20;;;4.10;20.50;;;;;;5096174;28;20206;-61
2021/01/05 01:02:59;;;;;;;3.17;2.88;;;4.10;13.90;;;;;;5096330;28;20504;-61
2021/01/05 01:05:24;;;;;;;5.80;2.60;;;4.00;14.60;;;;;;5096458;28;20650;-60
2021/01/05 01:07:50;;;;;;;6.17;3.67;;;4.00;13.50;;;;;;5096218;28;20188;-61
2021/01/05 01:10:16;;;;;;;4.37;2.00;;;4.10;16.50;;;;;;5096179;28;20519;-60
2021/01/05 01:12:42;;;;;;;32.40;16.05;;;4.00;2.90;;;;;;5096203;28;20176;-60
2021/01/05 01:15:09;;;;;;;3.97;2.50;;;4.10;5.20;;;;;;5095863;28;20187;-60
2021/01/05 01:17:35;;;;;;;4.60;2.42;;;4.00;1.00;;;;;;5095934;28;20214;-60
2021/01/05 01:20:01;;;;;;;2.47;1.98;;;4.00;1.00;;;;;;5095820;28;20180;-60
2021/01/05 01:22:26;;;;;;;3.70;2.57;;;4.00;1.00;;;;;;5095967;28;20759;-60
2021/01/05 01:24:52;;;;;;;3.27;2.53;;;4.10;1.00;;;;;;5095564;28;20172;-60
2021/01/05 01:27:19;;;;;;;7.13;2.63;;;4.20;1.00;;;;;;5095995;28;20191;-60
2021/01/05 01:29:45;;;;;;;5.78;3.40;;;4.20;1.00;;;;;;5095604;28;20190;-60
2021/01/05 01:32:11;;;;;;;4.70;3.80;;;4.30;1.00;;;;;;5095629;28;20247;-60
2021/01/05 01:34:36;;;;;;;3.33;2.20;;;4.10;1.00;;;;;;5095414;28;20770;-60
2021/01/05 01:37:06;;;;;;;3.23;2.70;;;4.30;1.00;;;;;;5095515;28;20219;-60
2021/01/05 01:39:33;;;;;;;3.90;2.80;;;4.30;1.00;;;;;;5095641;28;20203;-60
2021/01/05 01:42:01;;;;;;;4.43;2.72;;;4.00;1.00;;;;;;5095931;28;20190;-61
2021/01/05 01:44:29;;;;;;;2.38;2.15;;;4.10;1.00;;;;;;5095172;28;20249;-59
2021/01/05 01:47:01;;;;;;;2.83;2.10;;;4.00;1.00;;;;;;5095188;28;20187;-59
2021/01/05 01:49:27;;;;;;;2.40;1.95;;;3.80;1.00;;;;;;5095431;28;20211;-61
2021/01/05 01:51:54;;;;;;;4.43;2.33;;;4.00;1.00;;;;;;5095461;28;20188;-61
2021/01/05 01:54:49;;;;;;;3.50;2.55;;;4.10;1.00;;;;;;5094985;28;20323;-61
2021/01/05 01:57:43;;;;;;;4.10;2.70;;;4.10;1.00;;;;;;5095068;28;20204;-59
2021/01/05 02:00:35;;;;;;;2.70;1.85;;;4.20;1.00;;;;;;5095052;28;20189;-59
2021/01/05 02:03:03;;;;;;;4.38;2.53;;;4.00;1.00;;;;;;5094983;28;20176;-59
2021/01/05 02:05:36;;;;;;;3.28;1.85;;;3.90;1.00;;;;;;5094885;28;20245;-60
2021/01/05 02:08:17;;;;;;;4.65;2.30;;;3.90;1.00;;;;;;5094706;28;20172;-59
2021/01/05 02:10:57;;;;;;;2.45;1.70;;;3.80;1.00;;;;;;5094571;28;20176;-60
2021/01/05 02:13:29;;;;;;;4.30;2.17;;;3.70;1.00;;;;;;5094532;28;20190;-60
2021/01/05 02:16:18;;;;;;;2.10;1.58;;;3.60;1.00;;;;;;5095314;28;20182;-56
2021/01/05 02:18:57;;;;;;;2.38;2.00;;;3.60;1.00;;;;;;5094774;28;20172;-56
2021/01/05 02:21:26;;;;;;;1.75;1.35;;;3.70;1.00;;;;;;5094655;28;20678;-56
2021/01/05 02:24:15;;;;;;;3.00;2.10;;;3.80;1.00;;;;;;5094397;28;20172;-60
2021/01/05 02:27:00;;;;;;;2.60;2.30;;;4.00;1.00;;;;;;5094462;28;20250;-59
2021/01/05 02:29:31;;;;;;;3.15;2.20;;;3.90;1.00;;;;;;5094670;28;20590;-60
2021/01/05 02:32:00;;;;;;;3.53;1.95;;;3.70;1.00;;;;;;5094551;28;20249;-57
2021/01/05 02:34:43;;;;;;;2.10;1.90;;;3.70;1.00;;;;;;5097066;28;20179;-57
2021/01/05 02:37:21;;;;;;;3.25;2.15;;;3.70;1.00;;;;;;5097112;28;20196;-57
2021/01/05 02:40:14;;;;;;;2.58;2.00;;;3.80;1.00;;;;;;5098174;28;20176;-57
2021/01/05 02:42:52;;;;;;;2.75;2.25;;;3.70;1.00;;;;;;5098152;28;20199;-57
2021/01/05 02:45:26;;;;;;;2.35;1.60;;;3.70;1.00;;;;;;5096003;28;20186;-57
2021/01/05 02:48:17;;;;;;;2.33;1.88;;;3.80;1.00;;;;;;5095793;28;20616;-57
2021/01/05 02:51:03;;;;;;;2.35;1.77;;;3.80;1.00;;;;;;5086045;28;20624;-57
2021/01/05 02:53:54;;;;;;;3.15;2.15;;;3.80;1.00;;;;;;5095179;28;20183;-57
2021/01/05 02:57:00;;;;;;;3.05;2.00;;;3.70;2.00;;;;;;5096215;28;20207;-57
2021/01/05 03:00:03;;;;;;;3.92;2.42;;;3.90;16.40;;;;;;5097658;28;20508;-57
2021/01/05 03:02:50;;;;;;;2.83;2.38;;;3.60;19.10;;;;;;5104122;28;20186;-57
2021/01/05 03:05:16;;;;;;;2.70;2.30;;;3.60;38.20;;;;;;5104215;28;20270;-57
2021/01/05 03:07:42;;;;;;;3.00;2.40;;;3.60;47.70;;;;;;5095791;28;20207;-57
2021/01/05 03:10:46;;;;;;;2.85;2.10;;;3.60;52.00;;;;;;5093998;28;20215;-57
2021/01/05 03:13:29;;;;;;;3.25;2.10;;;3.50;55.40;;;;;;5093610;28;20600;-57
2021/01/05 03:16:06;;;;;;;2.80;2.47;;;3.60;81.90;;;;;;5092991;28;20191;-57
2021/01/05 03:18:47;;;;;;;3.75;2.30;;;3.60;92.70;;;;;;5093886;28;20174;-57
2021/01/05 03:21:23;;;;;;;4.25;2.88;;;3.70;93.60;;;;;;5093387;28;20508;-57
2021/01/05 03:23:50;;;;;;;3.17;2.60;;;3.70;92.30;;;;;;5093493;28;20232;-57
2021/01/05 03:26:24;;;;;;;3.47;2.38;;;3.70;92.80;;;;;;5093617;28;20524;-57
2021/01/05 03:28:50;;;;;;;4.03;2.45;;;3.70;95.20;;;;;;5093690;28;20179;-57
2021/01/05 03:31:37;;;;;;;5.00;2.55;;;3.70;99.60;;;;;;5092585;28;20179;-57
2021/01/05 03:34:04;;;;;;;2.95;1.73;;;3.80;99.90;;;;;;5093437;28;20186;-57
2021/01/05 03:36:30;;;;;;;3.30;2.40;;;3.90;99.50;;;;;;5093637;28;20577;-57
2021/01/05 03:38:56;;;;;;;3.17;2.37;;;3.80;99.20;;;;;;5093566;28;20247;-57
2021/01/05 03:41:21;;;;;;;3.00;2.58;;;3.70;96.30;;;;;;5093510;28;20327;-57
2021/01/05 03:43:47;;;;;;;3.23;2.13;;;3.60;97.40;;;;;;5093215;28;20217;-57
2021/01/05 03:46:13;;;;;;;2.60;2.10;;;3.80;99.90;;;;;;5093533;28;20180;-57
2021/01/05 03:48:39;;;;;;;2.30;2.10;;;3.90;99.90;;;;;;5093469;28;20187;-58
2021/01/05 03:51:05;;;;;;;4.38;3.00;;;4.10;99.90;;;;;;5093524;28;20229;-57
2021/01/05 03:53:31;;;;;;;4.80;3.33;;;4.10;99.90;;;;;;5093179;28;20608;-57
2021/01/05 03:55:57;;;;;;;2.70;2.23;;;3.80;91.70;;;;;;5093292;28;20241;-59
2021/01/05 03:58:22;;;;;;;3.80;2.80;;;3.80;90.60;;;;;;5093300;28;20480;-59
2021/01/05 04:00:48;;;;;;;1.87;1.67;;;3.80;89.90;;;;;;5093236;28;20196;-59
2021/01/05 04:03:14;;;;;;;4.13;2.50;;;4.00;94.90;;;;;;5093160;28;20226;-59
2021/01/05 04:05:39;;;;;;;3.33;2.60;;;4.00;91.80;;;;;;5093392;28;20518;-59
2021/01/05 04:08:05;;;;;;;4.93;2.97;;;4.00;89.40;;;;;;5093455;28;20308;-59
2021/01/05 04:10:31;;;;;;;2.77;2.53;;;4.00;73.90;;;;;;5100157;28;20242;-59
2021/01/05 04:12:56;;;;;;;5.30;3.50;;;3.90;71.30;;;;;;5093221;28;20433;-59
2021/01/05 04:15:24;;;;;;;4.00;3.30;;;4.00;79.50;;;;;;5096647;28;20649;-59
2021/01/05 04:17:51;;;;;;;3.15;2.83;;;3.90;65.00;;;;;;5093024;28;20196;-59
2021/01/05 04:20:18;;;;;;;3.53;3.22;;;3.90;63.50;;;;;;5093212;28;20180;-57
2021/01/05 04:22:44;;;;;;;6.57;3.97;;;3.80;65.20;;;;;;5093080;28;20176;-57
2021/01/05 04:25:13;;;;;;;4.73;3.53;;;3.70;69.80;;;;;;5093005;28;20171;-60
2021/01/05 04:27:38;;;;;;;5.72;3.95;;;3.70;92.80;;;;;;5093162;28;20183;-60
2021/01/05 04:30:07;;;;;;;5.00;3.20;;;3.90;98.10;;;;;;5093116;28;20184;-60
2021/01/05 04:32:32;;;;;;;4.78;3.25;;;3.80;99.50;;;;;;5094587;28;20176;-61
2021/01/05 04:34:58;;;;;;;3.50;2.80;;;3.90;99.90;;;;;;5096396;28;20187;-60
2021/01/05 04:37:23;;;;;;;5.87;3.23;;;3.90;98.80;;;;;;5095637;28;20208;-60
2021/01/05 04:39:49;;;;;;;4.73;3.40;;;3.70;99.90;;;;;;5096680;28;20186;-60
2021/01/05 04:42:41;;;;;;;4.40;3.20;;;3.70;99.90;;;;;;5096560;28;20545;-60
2021/01/05 04:45:09;;;;;;;3.97;3.35;;;3.60;99.90;;;;;;5096234;28;20241;-60
2021/01/05 04:47:41;;;;;;;5.05;3.72;;;3.70;99.90;;;;;;5096427;28;20180;-60
2021/01/05 04:50:13;;;;;;;4.32;3.92;;;3.70;99.90;;;;;;5098752;28;20202;-60
2021/01/05 04:52:45;;;;;;;8.77;4.25;;;3.80;99.90;;;;;;5087714;28;20210;-60
2021/01/05 04:55:25;;;;;;;6.15;3.95;;;3.90;99.90;;;;;;5096551;28;20269;-57
2021/01/05 04:58:03;;;;;;;5.82;3.78;;;4.00;99.90;;;;;;5096562;28;20204;-58
2021/01/05 05:00:29;;;;;;;6.68;5.10;;;4.00;99.90;;;;;;5096279;28;20563;-58
2021/01/05 05:03:12;;;;;;;5.93;3.60;;;4.10;99.90;;;;;;5096102;28;20187;-58
2021/01/05 05:06:13;;;;;;;6.00;3.78;;;4.10;98.20;;;;;;5095980;28;20172;-58
2021/01/05 05:09:04;;;;;;;9.07;4.22;;;4.00;74.90;;;;;;5095924;28;20211;-58
2021/01/05 05:11:52;;;;;;;5.22;3.60;;;4.10;80.90;;;;;;5095774;28;20233;-58
2021/01/05 05:14:27;;;;;;;5.03;3.78;;;4.40;75.40;;;;;;5094457;28;20267;-58
2021/01/05 05:17:05;;;;;;;5.97;4.45;;;4.40;53.20;;;;;;5095521;28;20199;-60
2021/01/05 05:19:43;;;;;;;7.85;3.55;;;4.20;24.10;;;;;;5095798;28;20530;-61
2021/01/05 05:22:13;;;;;;;5.95;4.55;;;4.10;1.00;;;;;;5095794;28;20175;-62
2021/01/05 05:25:12;;;;;;;5.88;4.38;;;3.90;11.20;;;;;;5095330;28;20191;-62
2021/01/05 05:27:58;;;;;;;5.45;3.70;;;3.90;19.40;;;;;;5095585;28;20256;-63
2021/01/05 05:30:35;;;;;;;6.78;3.90;;;3.90;25.40;;;;;;5095650;28;20180;-63
2021/01/05 05:33:04;;;;;;;7.03;5.13;;;4.10;36.10;;;;;;5095464;28;20175;-63
2021/01/05 05:35:48;;;;;;;7.00;4.82;;;4.10;33.20;;;;;;5095916;28;20179;-59
2021/01/05 05:38:22;;;;;;;6.13;4.72;;;3.90;32.20;;;;;;5094778;28;20369;-59
2021/01/05 05:41:13;;;;;;;9.52;5.43;;;3.90;48.90;;;;;;5095731;28;20190;-59
2021/01/05 05:44:06;;;;;;;7.40;4.90;;;3.90;54.10;;;;;;5095193;28;20175;-59
2021/01/05 05:46:54;;;;;;;10.05;4.85;;;4.00;66.10;;;;;;5098820;28;20187;-59
2021/01/05 05:49:38;;;;;;;5.78;4.13;;;4.20;79.10;;;;;;5094419;28;20194;-59
2021/01/05 05:52:08;;;;;;;7.03;4.55;;;4.30;68.10;;;;;;5095572;28;20236;-58
2021/01/05 05:54:34;;;;;;;8.68;4.85;;;4.10;26.90;;;;;;5095309;28;20199;-58
2021/01/05 05:57:15;;;;;;;7.00;4.63;;;4.00;12.30;;;;;;5096101;28;20208;-58
2021/01/05 05:59:51;;;;;;;6.30;4.35;;;3.90;22.20;;;;;;5095845;28;20590;-58
2021/01/05 06:02:20;;;;;;;6.60;4.88;;;3.90;35.20;;;;;;5095697;28;20638;-58
2021/01/05 06:04:47;;;;;;;7.53;4.95;;;4.00;48.20;;;;;;5095462;28;20203;-58
2021/01/05 06:07:13;;;;;;;7.45;4.60;;;4.00;49.90;;;;;;5095013;28;20241;-60
2021/01/05 06:09:38;;;;;;;9.00;5.53;;;4.00;45.20;;;;;;5095342;28;20180;-60
2021/01/05 06:12:06;;;;;;;8.27;5.23;;;4.00;56.80;;;;;;5095272;28;20275;-60
2021/01/05 06:14:32;;;;;;;9.10;5.43;;;4.10;45.60;;;;;;5094893;28;20180;-60
2021/01/05 06:16:58;;;;;;;7.15;4.78;;;4.30;54.80;;;;;;5095004;28;20210;-60
2021/01/05 06:19:23;;;;;;;9.10;5.47;;;4.00;25.90;;;;;;5094471;28;20259;-60
2021/01/05 06:21:49;;;;;;;6.40;5.27;;;3.80;22.10;;;;;;5094642;28;20175;-60
2021/01/05 06:24:15;;;;;;;7.50;5.00;;;4.00;37.10;;;;;;5094163;28;20255;-61
2021/01/05 06:26:40;;;;;;;7.97;5.73;;;4.10;53.50;;;;;;5093373;28;20190;-61
2021/01/05 06:29:06;;;;;;;7.20;5.27;;;4.00;48.20;;;;;;5094271;28;20414;-61
2021/01/05 06:31:32;;;;;;;7.50;4.87;;;4.20;63.50;;;;;;5094608;28;20221;-61
2021/01/05 06:33:57;;;;;;;7.23;4.60;;;4.30;59.00;;;;;;5094112;28;20280;-60
2021/01/05 06:36:23;;;;;;;7.40;5.27;;;4.20;46.40;;;;;;5094298;28;20277;-59
2021/01/05 06:38:49;;;;;;;8.00;4.60;;;4.40;47.00;;;;;;5094177;28;20256;-61
2021/01/05 06:41:15;;;;;;;9.40;4.93;;;4.50;32.40;;;;;;5094160;28;20552;-57
2021/01/05 06:43:40;;;;;;;10.30;5.63;;;4.40;14.80;;;;;;5093868;28;20746;-61
2021/01/05 06:46:08;;;;;;;8.20;5.17;;;4.10;1.00;;;;;;5094298;28;20259;-61
2021/01/05 06:48:35;;;;;;;7.32;4.80;;;4.30;1.00;;;;;;5093986;28;20175;-62
2021/01/05 06:51:01;;;;;;;9.38;4.57;;;4.20;1.00;;;;;;5093887;28;20164;-62
2021/01/05 06:53:27;;;;;;;9.75;5.90;;;4.10;1.00;;;;;;5093850;28;20180;-62
2021/01/05 06:55:52;;;;;;;7.83;5.53;;;4.20;14.90;;;;;;5093268;28;20187;-61
2021/01/05 06:58:18;;;;;;;8.60;5.50;;;4.00;7.40;;;;;;5094004;28;20208;-61
2021/01/05 07:00:43;;;;;;;7.80;5.00;;;4.00;18.40;;;;;;5093111;28;20192;-62
2021/01/05 07:03:09;;;;;;;10.87;5.50;;;4.00;29.30;;;;;;5093442;28;20621;-61
2021/01/05 07:05:34;;;;;;;11.20;6.50;;;3.90;39.10;;;;;;5093812;28;20188;-61
2021/01/05 07:08:00;;;;;;;5.90;4.43;;;4.00;47.30;;;;;;5091887;28;20210;-63
2021/01/05 07:10:26;;;;;;;6.73;4.00;;;4.00;52.20;;;;;;5092894;28;20556;-62
2021/01/05 07:12:51;;;;;;;7.53;4.70;;;4.10;58.50;;;;;;5094034;28;20183;-63
2021/01/05 07:15:18;;;;;;;7.80;5.30;;;4.30;71.30;;;;;;5094161;28;20502;-60
2021/01/05 07:17:44;;;;;;;9.00;5.68;;;4.30;58.80;;;;;;5093955;28;20210;-63
2021/01/05 07:20:11;;;;;;;7.30;5.30;;;4.40;50.40;;;;;;5094209;28;20600;-59
2021/01/05 07:22:36;;;;;;;7.05;5.30;;;4.10;26.40;;;;;;5093978;28;20891;-61
2021/01/05 07:25:04;;;;;;;11.00;6.33;;;4.20;38.10;;;;;;5092746;28;20184;-61
2021/01/05 07:27:29;;;;;;;6.55;4.80;;;4.10;32.30;;;;;;5093155;28;20648;-63
2021/01/05 07:29:55;;;;;;;6.00;4.67;;;4.10;40.70;;;;;;5091813;28;20384;-62
2021/01/05 07:32:22;;;;;;;8.40;5.43;;;4.10;51.40;;;;;;5092700;28;20180;-64
2021/01/05 07:34:47;;;;;;;8.77;6.15;;;4.00;39.20;;;;;;5093756;28;20190;-64
2021/01/05 07:37:28;;;;;;;8.17;5.27;;;4.00;50.00;;;;;;5093866;28;20208;-62
2021/01/05 07:39:54;;;;;;;7.28;5.68;;;4.20;66.50;;;;;;5093836;28;20217;-62
2021/01/05 07:42:29;;;;;;;7.07;4.77;;;4.20;59.20;;;;;;5093884;28;20676;-62
2021/01/05 07:44:57;;;;;;;9.13;5.63;;;4.40;56.60;;;;;;5093576;28;20274;-63
2021/01/05 07:47:25;;;;;;;8.00;5.20;;;4.40;53.10;;;;;;5093993;28;20183;-63
2021/01/05 07:49:51;;;;;;;6.78;4.85;;;4.40;42.10;;;;;;5094118;28;20176;-63
2021/01/05 07:52:42;;;;;;;11.47;6.50;;;4.60;40.40;;;;;;5093806;28;20172;-63
2021/01/05 07:55:10;;;;;;;9.48;5.85;;;4.40;17.00;;;;;;5093588;28;20298;-63
2021/01/05 07:57:35;;;;;;;7.65;4.35;;;4.30;1.00;;;;;;5093731;28;20244;-59
2021/01/05 08:00:01;;;;;;;6.73;4.43;;;4.30;1.00;;;;;;5093629;28;20658;-60
2021/01/05 08:02:27;;;;;;;10.20;6.40;;;4.50;9.20;;;;;;5092009;28;20180;-60
2021/01/05 08:04:52;;;;;;;6.77;5.27;;;4.40;3.20;;;;;;5092317;28;20418;-60
2021/01/05 08:07:18;;;;;;;7.83;4.93;;;4.30;11.80;;;;;;5096484;28;20287;-61
2021/01/05 08:09:44;;;;;;;10.47;5.40;;;4.40;32.90;;;;;;5097575;28;20172;-62
2021/01/05 08:12:15;;;;;;;7.57;4.93;;;4.40;40.00;;;;;;5097495;28;20188;-61
2021/01/05 08:14:41;;;;;;;10.98;5.30;;;4.40;43.40;;;;;;5097266;28;20238;-64
2021/01/05 08:17:07;;;;;;;7.53;5.68;;;4.60;47.80;;;;;;5081734;28;20269;-63
2021/01/05 08:19:33;;;;;;;8.17;5.20;;;4.40;33.20;;;;;;5082523;28;20176;-62
2021/01/05 08:21:58;;;;;;;6.57;5.57;;;4.40;32.30;;;;;;5096421;28;20525;-59
2021/01/05 08:24:24;;;;;;;6.30;4.47;;;4.40;43.60;;;;;;5096197;28;20214;-60
2021/01/05 08:26:49;;;;;;;7.43;5.43;;;4.40;35.00;;;;;;5097360;28;20227;-63
2021/01/05 08:29:15;;;;;;;9.13;5.53;;;4.20;29.40;;;;;;5096304;28;20171;-63
2021/01/05 08:31:43;;;;;;;9.30;6.27;;;4.10;68.70;;;;;;5095045;28;20192;-61
2021/01/05 08:34:09;;;;;;;9.52;6.00;;;4.10;92.60;;;;;;5096915;28;20230;-64
2021/01/05 08:36:34;;;;;;;8.00;5.67;;;4.20;97.60;;;;;;5096878;28;20242;-64
2021/01/05 08:39:03;;;;;;;7.77;6.03;;;4.50;99.90;;;;;;5096343;28;20429;-65
2021/01/05 08:41:29;;;;;;;10.25;5.55;;;4.10;98.60;;;;;;5096533;28;20258;-65
2021/01/05 08:43:54;;;;;;;9.87;6.20;;;4.10;98.70;;;;;;5096806;28;20203;-64
2021/01/05 08:46:25;;;;;;;8.07;6.10;;;4.30;99.90;;;;;;5096828;28;20180;-65
2021/01/05 08:48:51;;;;;;;9.60;6.40;;;4.40;99.90;;;;;;5096255;28;20529;-62
2021/01/05 08:51:18;;;;;;;29.67;18.87;;;4.50;99.90;;;;;;5096115;28;20259;-62
2021/01/05 08:53:45;;;;;;;11.48;6.80;;;4.60;99.90;;;;;;5096723;28;20183;-61
2021/01/05 08:56:23;;;;;;;9.45;6.25;;;4.70;99.90;;;;;;5096004;28;20267;-62
2021/01/05 08:58:50;;;;;;;10.20;6.00;;;4.70;99.90;;;;;;5097078;28;20233;-61
2021/01/05 09:01:16;;;;;;;9.65;5.10;;;4.90;99.90;;;;;;5096894;28;20192;-60
2021/01/05 09:03:43;;;;;;;9.27;4.97;;;5.00;98.00;;;;;;5097046;28;20481;-62
2021/01/05 09:06:11;;;;;;;6.95;5.38;;;4.60;40.70;;;;;;5097932;28;20156;-60
2021/01/05 09:08:37;;;;;;;8.32;5.95;;;4.40;39.40;;;;;;5097514;28;20268;-61
2021/01/05 09:11:15;;;;;;;8.60;5.70;;;4.50;53.60;;;;;;5096776;28;20198;-59
2021/01/05 09:13:41;;;;;;;5.50;4.70;;;4.70;67.00;;;;;;5096091;28;20278;-61
2021/01/05 09:16:07;;;;;;;8.80;6.40;;;4.50;40.80;;;;;;5096429;28;20203;-59
2021/01/05 09:18:32;;;;;;;6.47;4.80;;;4.40;52.80;;;;;;5095662;28;20214;-60
2021/01/05 09:20:58;;;;;;;8.00;5.63;;;4.50;67.40;;;;;;5096583;28;20860;-60
2021/01/05 09:23:24;;;;;;;9.17;5.40;;;4.20;74.80;;;;;;5094924;28;20180;-60
2021/01/05 09:25:54;;;;;;;7.05;4.93;;;4.30;93.40;;;;;;5096489;28;20176;-61
2021/01/05 09:28:22;;;;;;;6.13;4.85;;;4.40;99.90;;;;;;5095351;28;20232;-62
2021/01/05 09:30:48;;;;;;;7.40;5.60;;;4.70;99.90;;;;;;5096517;28;20184;-62
2021/01/05 09:33:15;;;;;;;5.53;3.97;;;4.70;95.60;;;;;;5096175;28;20182;-58
2021/01/05 09:39:09;;;;;;;7.63;5.32;;;4.40;81.00;;;;;;5079575;28;20207;-60
2021/01/05 09:41:38;;;;;;;5.00;4.00;;;4.50;93.40;;;;;;5075623;28;20575;-62
2021/01/05 09:44:04;;;;;;;10.35;6.28;;;4.60;93.90;;;;;;5075347;28;20237;-61
2021/01/05 09:46:30;;;;;;;5.65;4.47;;;4.60;93.60;;;;;;5075642;28;20238;-61
2021/01/05 09:48:56;;;;;;;8.13;5.10;;;4.70;96.40;;;;;;5075844;28;20605;-64
2021/01/05 09:51:24;;;;;;;6.50;4.90;;;4.50;61.90;;;;;;5074518;28;20441;-61
2021/01/05 09:53:49;;;;;;;5.45;4.53;;;4.40;51.50;;;;;;5074994;28;20187;-64
2021/01/05 09:56:15;;;;;;;6.03;4.87;;;4.80;72.10;;;;;;5074440;28;20299;-65
2021/01/05 09:58:41;;;;;;;7.47;5.23;;;4.60;42.40;;;;;;5075135;28;20223;-65
2021/01/05 10:01:06;;;;;;;5.73;3.90;;;4.50;48.90;;;;;;5073537;28;20503;-64
2021/01/05 10:03:32;;;;;;;5.33;3.83;;;4.60;54.80;;;;;;5074852;28;20215;-64
2021/01/05 10:05:58;;;;;;;8.70;4.97;;;4.90;64.80;;;;;;5074738;28;20225;-62
2021/01/05 10:08:23;;;;;;;7.23;4.97;;;4.80;38.50;;;;;;5073996;28;20484;-61
2021/01/05 10:10:49;;;;;;;9.03;5.70;;;4.70;27.90;;;;;;5075727;28;20180;-62
2021/01/05 10:13:14;;;;;;;7.13;5.03;;;4.60;2.90;;;;;;5075545;28;20172;-60
2021/01/05 10:15:40;;;;;;;8.40;5.23;;;4.70;4.30;;;;;;5071545;28;20169;-60
2021/01/05 10:18:06;;;;;;;6.47;4.20;;;4.70;9.80;;;;;;5054738;28;20219;-61
2021/01/05 10:20:32;;;;;;;7.40;5.23;;;4.70;5.20;;;;;;5055064;28;20614;-65
2021/01/05 10:22:58;;;;;;;7.25;5.18;;;4.90;1.70;;;;;;5054056;28;20195;-61
2021/01/05 10:25:23;;;;;;;6.90;4.70;;;5.10;1.00;;;;;;5054670;28;20260;-62
2021/01/05 10:27:49;;;;;;;8.67;4.77;;;5.30;1.00;;;;;;5054722;28;20265;-62
2021/01/05 10:30:16;;;;;;;5.65;4.35;;;5.30;1.00;;;;;;5053798;28;20173;-62
2021/01/05 10:32:58;;;;;;;6.53;4.25;;;5.20;1.00;;;;;;5065043;28;20594;-63
2021/01/05 10:35:24;;;;;;;7.32;4.47;;;4.90;1.00;;;;;;5086981;28;20207;-63
2021/01/05 10:37:57;;;;;;;6.30;4.50;;;4.90;1.00;;;;;;5073758;28;20199;-64
2021/01/05 10:40:27;;;;;;;8.35;5.35;;;5.10;1.00;;;;;;5073189;28;20317;-64
2021/01/05 10:42:59;;;;;;;7.60;5.00;;;5.00;1.00;;;;;;5074663;28;20196;-62
2021/01/05 10:45:29;;;;;;;7.95;4.35;;;4.80;1.00;;;;;;5074911;28;20252;-62
2021/01/05 10:47:55;;;;;;;7.10;4.60;;;4.80;1.00;;;;;;5074777;28;20168;-62
2021/01/05 10:50:24;;;;;;;7.10;5.00;;;5.20;1.00;;;;;;5074732;28;20230;-61
2021/01/05 10:52:51;;;;;;;6.15;4.60;;;5.10;1.00;;;;;;5074779;28;20172;-61
2021/01/05 10:55:19;;;;;;;6.93;5.32;;;5.10;1.00;;;;;;5073152;28;20191;-61
2021/01/05 10:57:44;;;;;;;5.68;4.68;;;5.20;1.00;;;;;;5074496;28;20204;-61
2021/01/05 11:00:14;;;;;;;6.60;4.63;;;5.30;1.00;;;;;;5074336;28;20220;-61
2021/01/05 11:02:39;;;;;;;5.18;3.47;;;5.20;1.00;;;;;;5074328;28;20177;-62
2021/01/05 11:05:06;;;;;;;5.63;4.00;;;5.30;1.00;;;;;;5074143;28;20183;-62
2021/01/05 11:07:31;;;;;;;5.35;4.35;;;5.20;1.00;;;;;;5074688;28;20554;-62
2021/01/05 11:09:58;;;;;;;3.80;3.40;;;5.30;1.00;;;;;;5074528;28;20416;-62
2021/01/05 11:12:27;;;;;;;5.25;4.68;;;5.20;1.00;;;;;;5074484;28;20173;-61
2021/01/05 11:14:53;;;;;;;4.93;4.43;;;5.10;1.00;;;;;;5074028;28;20211;-62
2021/01/05 11:17:19;;;;;;;8.67;5.63;;;4.90;1.00;;;;;;5073617;28;20236;-61
2021/01/05 11:19:46;;;;;;;6.90;4.55;;;5.10;1.00;;;;;;5073266;28;20442;-63
2021/01/05 11:22:19;;;;;;;6.45;4.45;;;5.50;1.00;;;;;;5079425;28;20244;-62
2021/01/05 11:24:48;;;;;;;5.93;4.05;;;5.40;1.00;;;;;;5067646;28;20250;-61
2021/01/05 11:27:15;;;;;;;7.78;3.88;;;5.20;1.00;;;;;;5073889;28;20223;-61
2021/01/05 11:29:42;;;;;;;5.90;4.05;;;5.20;1.00;;;;;;5066148;28;20602;-61
2021/01/05 11:32:15;;;;;;;8.25;4.55;;;5.30;1.00;;;;;;5074238;28;20184;-64
2021/01/05 11:34:41;;;;;;;4.65;4.22;;;5.30;1.00;;;;;;5073789;28;20192;-63
2021/01/05 11:37:18;;;;;;;7.00;6.03;;;5.00;1.00;;;;;;5073705;28;20212;-65
2021/01/05 11:39:46;;;;;;;5.03;3.95;;;5.20;1.00;;;;;;5073908;28;20501;-65
2021/01/05 11:42:14;;;;;;;6.50;4.50;;;5.20;1.00;;;;;;5076579;28;20241;-65
2021/01/05 11:44:41;;;;;;;5.07;3.90;;;5.20;1.00;;;;;;5077760;28;20172;-62
2021/01/05 11:47:07;;;;;;;5.85;3.90;;;5.10;1.00;;;;;;5076502;28;20180;-62
2021/01/05 11:49:32;;;;;;;5.20;3.33;;;5.20;1.00;;;;;;5077728;28;20187;-63
2021/01/05 11:51:58;;;;;;;4.10;3.40;;;5.20;1.00;;;;;;5077582;28;20195;-64
2021/01/05 11:54:25;;;;;;;6.10;4.10;;;5.20;1.00;;;;;;5093052;28;20191;-61
2021/01/05 11:56:55;;;;;;;6.28;4.10;;;5.20;99.90;;;;;;5077271;28;20465;-61
2021/01/05 11:59:21;;;;;;;6.85;4.90;;;5.40;1.00;;;;;;5077449;28;20180;-62
2021/01/05 12:01:46;;;;;;;3.67;3.10;;;5.60;1.00;;;;;;5077563;28;20188;-62
2021/01/05 12:04:12;;;;;;;5.23;3.90;;;5.50;99.90;;;;;;5076396;28;20180;-64
2021/01/05 12:06:38;;;;;;;4.80;3.23;;;5.30;99.90;;;;;;5077873;28;20264;-64
2021/01/05 12:09:05;;;;;;;3.63;2.80;;;5.20;99.90;;;;;;5077550;28;20177;-61
2021/01/05 12:11:33;;;;;;;3.00;2.65;;;5.30;99.90;;;;;;5076280;28;20452;-60
2021/01/05 12:13:59;;;;;;;3.13;2.83;;;5.20;99.90;;;;;;5077049;28;20184;-62
2021/01/05 12:16:33;;;;;;;5.30;3.50;;;5.20;99.90;;;;;;5082154;28;20211;-63
2021/01/05 12:19:01;;;;;;;3.17;2.88;;;5.50;99.90;;;;;;5083896;28;20181;-62
2021/01/05 12:21:35;;;;;;;3.45;3.00;;;5.40;99.90;;;;;;5076723;28;20227;-65
2021/01/05 12:24:02;;;;;;;3.00;2.38;;;5.40;99.90;;;;;;5076503;28;20184;-63
2021/01/05 12:26:31;;;;;;;2.95;2.65;;;5.20;99.90;;;;;;5076137;28;20506;-63
2021/01/05 12:28:58;;;;;;;2.38;2.15;;;5.30;99.90;;;;;;5076486;28;20518;-64
2021/01/05 12:31:24;;;;;;;3.58;3.00;;;5.10;99.90;;;;;;5075967;28;20192;-62
2021/01/05 12:33:50;;;;;;;8.73;3.22;;;5.20;99.90;;;;;;5076721;28;20180;-61
2021/01/05 12:36:31;;;;;;;3.07;2.50;;;5.10;99.90;;;;;;5076976;28;20176;-63
2021/01/05 12:38:58;;;;;;;3.38;2.85;;;5.20;99.90;;;;;;5077057;28;20172;-64
2021/01/05 12:41:32;;;;;;;3.30;2.90;;;5.30;99.90;;;;;;5076760;28;20212;-64
2021/01/05 12:43:58;;;;;;;3.95;2.95;;;5.40;99.90;;;;;;5076790;28;20172;-62
2021/01/05 12:46:32;;;;;;;3.10;2.57;;;5.40;99.90;;;;;;5076870;28;20480;-62
2021/01/05 12:48:58;;;;;;;5.30;3.50;;;5.20;99.90;;;;;;5077017;28;20423;-62
2021/01/05 12:51:29;;;;;;;3.40;2.80;;;5.20;99.90;;;;;;5076790;28;20180;-61
2021/01/05 12:53:55;;;;;;;5.45;4.25;;;5.50;99.90;;;;;;5075219;28;20177;-62
2021/01/05 12:56:20;;;;;;;4.07;3.17;;;5.50;99.90;;;;;;5092281;28;20185;-62
2021/01/05 12:58:47;;;;;;;4.57;2.70;;;5.60;99.90;;;;;;5076223;28;20287;-64
2021/01/05 13:01:17;;;;;;;3.45;3.13;;;5.40;99.90;;;;;;5075767;28;20196;-64
2021/01/05 13:03:44;;;;;;;4.53;3.38;;;5.30;99.90;;;;;;5075852;28;20180;-63
2021/01/05 13:06:09;;;;;;;3.58;2.58;;;5.30;99.90;;;;;;5075850;28;20243;-62
2021/01/05 13:08:36;;;;;;;4.13;2.93;;;5.40;99.90;;;;;;5075911;28;20188;-63
2021/01/05 13:11:08;;;;;;;3.53;3.10;;;5.50;99.90;;;;;;5076821;28;20177;-63
2021/01/05 13:13:34;;;;;;;4.10;2.97;;;5.40;99.90;;;;;;5075688;28;20173;-63
2021/01/05 13:16:00;;;;;;;4.33;3.60;;;5.60;99.90;;;;;;5076572;28;20555;-62
2021/01/05 13:18:25;;;;;;;3.40;2.63;;;5.70;99.90;;;;;;5076152;28;20281;-62